Time;durP1;ratioP1;P1;durP2;ratioP2;P2;SDS_P1;SDS_P2;PMS_P1;PMS_P2;Temp;Humidity;BMP_temperature;BMP_pressure;BME280_temperature;BME280_humidity;BME280_pressure;Samples;Min_cycle;Max_cycle;Signal;HPM_P1;HPM_P2
2024/01/22 00:00:46;;;;;;;2.57;1.00;;;10.70;99.90;;;10.86;47.81;101044.63;4852759;28;100293;-37
2024/01/22 00:03:16;;;;;;;3.17;1.00;;;10.70;99.90;;;10.84;52.65;101040.25;4858968;28;119397;-37
2024/01/22 00:05:41;;;;;;;2.23;1.07;;;10.80;99.90;;;10.85;48.72;101027.06;4851962;28;102360;-35
2024/01/22 00:08:07;;;;;;;1.37;1.10;;;10.80;99.90;;;10.87;49.62;101038.41;4867578;28;98179;-37
2024/01/22 00:10:33;;;;;;;3.10;1.20;;;10.70;99.90;;;10.84;52.12;101035.84;4864055;28;98247;-37
2024/01/22 00:12:59;;;;;;;4.03;1.20;;;10.80;99.90;;;10.72;53.00;101041.53;4859181;28;101820;-44
2024/01/22 00:15:25;;;;;;;2.50;1.10;;;10.70;99.90;;;10.77;50.11;101029.06;4870966;28;99230;-36
2024/01/22 00:17:50;;;;;;;1.93;1.23;;;10.60;99.90;;;10.78;51.40;101014.94;4861256;28;99587;-37
2024/01/22 00:20:16;;;;;;;1.03;0.93;;;10.60;99.90;;;10.82;50.14;101003.38;4863029;28;98694;-38
2024/01/22 00:22:45;;;;;;;3.40;1.20;;;10.60;99.90;;;11.02;48.60;101001.00;4859960;28;99601;-37
2024/01/22 00:25:14;;;;;;;1.03;0.77;;;10.80;99.90;;;11.02;51.10;101014.19;4848631;28;99501;-35
2024/01/22 00:27:43;;;;;;;2.20;1.10;;;10.80;99.90;;;11.19;47.32;101007.50;4865093;28;98760;-36
2024/01/22 00:30:10;;;;;;;1.37;0.90;;;10.90;99.90;;;11.24;47.13;100993.22;4862692;28;97605;-37
2024/01/22 00:32:36;;;;;;;7.97;1.70;;;11.10;99.90;;;11.14;52.12;101006.75;4854112;28;100173;-36
2024/01/22 00:35:02;;;;;;;2.53;1.00;;;11.10;99.90;;;11.25;50.55;100991.44;4853846;28;119801;-37
2024/01/22 00:37:28;;;;;;;2.33;0.97;;;11.20;99.90;;;11.02;53.88;100995.72;4850951;28;98999;-36
2024/01/22 00:39:57;;;;;;;5.73;1.27;;;11.00;99.90;;;10.96;53.76;100985.31;4875297;28;98629;-35
2024/01/22 00:42:23;;;;;;;2.77;0.90;;;10.90;99.90;;;11.03;52.53;100984.22;4850694;28;99626;-38
2024/01/22 00:44:49;;;;;;;3.10;1.10;;;10.90;99.90;;;11.00;48.95;100978.19;4857643;28;100628;-37
2024/01/22 00:47:15;;;;;;;1.40;0.80;;;10.80;99.90;;;11.00;48.47;100962.34;4860253;28;98633;-37
2024/01/22 00:49:44;;;;;;;1.93;1.23;;;10.80;99.90;;;10.92;53.62;100965.22;4858776;28;104699;-36
2024/01/22 00:52:10;;;;;;;2.23;1.00;;;10.90;99.90;;;11.06;49.32;100940.16;4851034;28;122639;-37
2024/01/22 00:54:36;;;;;;;3.70;1.00;;;11.00;99.90;;;10.97;52.06;100942.19;4864976;28;106628;-39
2024/01/22 00:57:01;;;;;;;3.33;1.10;;;11.00;99.90;;;10.92;56.47;100932.69;4851425;28;97474;-37
2024/01/22 00:59:27;;;;;;;1.23;1.00;;;11.00;99.90;;;10.87;55.52;100918.78;4855664;28;97458;-37
2024/01/22 01:01:53;;;;;;;2.70;1.30;;;11.00;99.90;;;11.06;49.83;100908.47;4866324;28;108073;-36
2024/01/22 01:04:19;;;;;;;1.80;1.00;;;11.10;99.90;;;10.96;56.03;100921.97;4849347;28;110200;-36
2024/01/22 01:06:45;;;;;;;1.97;1.23;;;11.00;99.90;;;11.06;54.50;100903.19;4859868;28;97623;-36
2024/01/22 01:09:11;;;;;;;2.53;1.47;;;11.20;99.90;;;10.98;53.81;100901.66;4855044;28;97185;-36
2024/01/22 01:11:36;;;;;;;3.53;1.30;;;11.00;99.90;;;11.01;54.88;100898.94;4901088;28;123588;-36
2024/01/22 01:14:03;;;;;;;2.93;1.57;;;11.10;99.90;;;10.97;55.37;100883.25;4894344;28;97483;-36
2024/01/22 01:16:28;;;;;;;3.33;1.43;;;11.00;99.90;;;11.05;54.51;100885.66;4895758;28;97391;-42
2024/01/22 01:18:55;;;;;;;3.40;1.40;;;11.10;99.90;;;10.98;56.04;100875.28;4895912;28;97534;-36
2024/01/22 01:21:22;;;;;;;0.90;0.77;;;11.10;99.90;;;10.88;55.70;100879.16;4895397;28;100059;-35
2024/01/22 01:23:49;;;;;;;1.03;0.80;;;10.90;99.90;;;10.77;58.57;100870.72;4892413;28;99069;-38
2024/01/22 01:26:15;;;;;;;1.20;0.70;;;10.90;99.90;;;10.74;53.65;100844.44;4899529;28;97794;-36
2024/01/22 01:28:41;;;;;;;0.70;0.50;;;10.80;99.90;;;10.95;50.11;100832.28;4894382;28;100877;-36
2024/01/22 01:31:07;;;;;;;2.60;1.07;;;11.00;99.90;;;10.80;59.09;100838.09;4904235;28;113892;-37
2024/01/22 01:33:34;;;;;;;2.33;0.63;;;11.00;99.90;;;10.85;54.33;100831.78;4897133;28;116476;-37
2024/01/22 01:35:59;;;;;;;1.83;0.73;;;11.00;99.90;;;10.91;54.64;100834.19;4901042;28;97167;-37
2024/01/22 01:38:25;;;;;;;1.93;0.83;;;11.10;99.90;;;10.79;59.40;100857.47;4898181;28;97629;-37
2024/01/22 01:40:51;;;;;;;1.33;0.70;;;11.00;99.90;;;10.75;59.10;100835.63;4900538;28;97959;-35
2024/01/22 01:43:20;;;;;;;4.53;0.70;;;11.00;99.90;;;10.84;57.67;100811.53;4896579;28;100530;-37
2024/01/22 01:45:46;;;;;;;0.83;0.67;;;11.00;99.90;;;10.77;55.01;100823.22;4890709;28;97069;-37
2024/01/22 01:48:13;;;;;;;1.30;0.70;;;11.00;99.90;;;10.81;58.90;100819.56;4900691;28;99195;-39
2024/01/22 01:50:39;;;;;;;0.77;0.60;;;11.00;99.90;;;10.77;58.07;100802.13;4896907;28;97970;-38
2024/01/22 01:53:06;;;;;;;0.83;0.53;;;11.00;99.90;;;10.88;57.48;100788.56;4902592;28;97814;-42
2024/01/22 01:55:36;;;;;;;0.93;0.47;;;11.10;99.90;;;10.84;56.89;100782.50;4903264;28;97210;-38
2024/01/22 01:58:04;;;;;;;0.97;0.57;;;11.10;99.90;;;10.91;53.21;100778.75;4903018;28;97511;-36
2024/01/22 02:00:30;;;;;;;0.87;0.60;;;11.10;99.90;;;10.87;58.25;100756.03;4904897;28;110022;-37
2024/01/22 02:02:56;;;;;;;2.47;0.60;;;11.10;99.90;;;10.77;59.80;100770.47;4904001;28;98174;-37
2024/01/22 02:05:22;;;;;;;0.90;0.40;;;11.00;99.90;;;10.80;59.53;100770.34;4897475;28;97422;-37
2024/01/22 02:07:49;;;;;;;0.73;0.50;;;11.10;99.90;;;10.72;60.27;100752.16;4902607;28;111059;-36
2024/01/22 02:10:18;;;;;;;1.53;0.60;;;11.00;99.90;;;10.84;56.56;100742.94;4903483;28;122956;-36
2024/01/22 02:12:43;;;;;;;1.57;0.80;;;11.10;99.90;;;11.05;53.56;100758.94;4901966;28;115445;-38
2024/01/22 02:15:09;;;;;;;1.03;0.50;;;11.20;99.90;;;11.08;57.02;100772.03;4909527;28;99570;-36
2024/01/22 02:17:35;;;;;;;0.80;0.67;;;11.30;99.90;;;11.06;59.02;100781.78;4903312;28;97280;-36
2024/01/22 02:20:01;;;;;;;0.40;0.40;;;11.30;99.90;;;11.11;55.79;100779.81;4903340;28;97922;-38
2024/01/22 02:22:26;;;;;;;1.47;0.70;;;11.30;99.90;;;11.20;52.34;100811.19;4905047;28;97146;-37
2024/01/22 02:24:52;;;;;;;1.93;0.60;;;11.40;99.90;;;11.17;58.18;100821.88;4902316;28;97142;-38
2024/01/22 02:27:19;;;;;;;0.43;0.43;;;11.40;99.90;;;11.14;57.75;100809.63;4893239;28;97459;-37
2024/01/22 02:29:44;;;;;;;0.83;0.60;;;11.40;99.90;;;11.15;57.75;100807.88;4890983;28;98094;-34
2024/01/22 02:32:10;;;;;;;0.40;0.40;;;11.30;99.90;;;11.17;54.73;100800.75;4901960;28;109064;-37
2024/01/22 02:34:37;;;;;;;0.50;0.50;;;11.40;99.90;;;11.09;58.99;100803.63;4888339;28;98931;-37
2024/01/22 02:37:03;;;;;;;1.60;0.47;;;11.40;99.90;;;11.21;57.13;100797.94;4901545;28;97523;-36
2024/01/22 02:39:29;;;;;;;1.03;0.60;;;11.40;99.90;;;11.21;56.44;100774.16;4901570;28;116128;-36
2024/01/22 02:41:55;;;;;;;1.87;1.00;;;11.50;99.90;;;11.12;59.43;100755.13;4905363;28;98245;-37
2024/01/22 02:44:21;;;;;;;1.50;0.80;;;11.40;99.90;;;11.21;58.21;100738.97;4900664;28;100091;-36
2024/01/22 02:46:47;;;;;;;0.43;0.43;;;11.40;99.90;;;11.22;54.28;100736.28;4895969;28;98523;-37
2024/01/22 02:49:15;;;;;;;1.20;0.53;;;11.40;99.90;;;11.34;55.14;100719.13;4906487;28;121382;-35
2024/01/22 02:51:47;;;;;;;2.77;0.83;;;11.50;99.90;;;11.32;56.77;100710.41;4893540;28;97994;-38
2024/01/22 02:54:13;;;;;;;1.33;0.73;;;11.50;99.90;;;11.17;59.99;100717.13;4899587;28;115186;-36
2024/01/22 02:56:39;;;;;;;0.90;0.50;;;11.50;99.90;;;11.32;51.76;100705.13;4899010;28;109521;-38
2024/01/22 02:59:06;;;;;;;1.60;0.50;;;11.50;99.90;;;11.40;54.13;100691.59;4899423;28;102831;-36
2024/01/22 03:01:33;;;;;;;2.57;0.90;;;11.60;99.90;;;11.42;58.16;100680.06;4888114;28;99560;-39
2024/01/22 03:03:58;;;;;;;1.47;0.87;;;11.60;99.90;;;11.31;55.54;100672.56;4892160;28;113680;-37
2024/01/22 03:06:24;;;;;;;2.00;0.83;;;11.50;99.90;;;11.27;58.67;100675.38;4899835;28;102949;-37
2024/01/22 03:08:50;;;;;;;3.80;1.20;;;11.50;99.90;;;11.28;59.33;100667.41;4893484;28;98020;-35
2024/01/22 03:11:16;;;;;;;2.97;1.27;;;11.50;99.90;;;11.27;58.81;100664.81;4897967;28;104224;-37
2024/01/22 03:13:42;;;;;;;2.63;0.73;;;11.50;99.90;;;11.48;52.93;100653.41;4901465;28;97311;-37
2024/01/22 03:16:08;;;;;;;1.03;0.60;;;11.60;99.90;;;11.39;59.13;100671.41;4905584;28;97583;-38
2024/01/22 03:18:34;;;;;;;2.17;0.80;;;11.60;99.90;;;11.43;58.40;100665.97;4891700;28;123485;-41
2024/01/22 03:21:03;;;;;;;4.70;0.53;;;11.60;99.90;;;11.33;60.24;100675.16;4905588;28;118664;-37
2024/01/22 03:23:30;;;;;;;2.90;0.70;;;11.60;99.90;;;11.38;59.34;100673.19;4901206;28;101867;-36
2024/01/22 03:25:56;;;;;;;2.87;0.50;;;11.60;99.90;;;11.47;58.18;100678.13;4901045;28;97509;-36
2024/01/22 03:28:21;;;;;;;1.40;0.70;;;11.70;99.90;;;11.41;59.72;100691.53;4896342;28;97670;-36
2024/01/22 03:30:47;;;;;;;1.90;0.50;;;11.70;99.90;;;11.43;54.29;100675.63;4900348;28;99261;-37
2024/01/22 03:33:13;;;;;;;2.33;0.50;;;11.60;99.90;;;11.46;58.57;100676.41;4902772;28;97303;-38
2024/01/22 03:35:39;;;;;;;0.87;0.50;;;11.70;99.90;;;11.52;54.69;100680.56;4905438;28;105720;-36
2024/01/22 03:38:04;;;;;;;0.53;0.50;;;11.70;99.90;;;11.46;59.51;100676.41;4891945;28;124796;-39
2024/01/22 03:40:30;;;;;;;1.30;0.47;;;11.70;99.90;;;11.44;60.36;100672.09;4900714;28;121047;-40
2024/01/22 03:42:56;;;;;;;2.10;0.60;;;11.70;99.90;;;11.45;59.33;100663.25;4903952;28;101846;-36
2024/01/22 03:45:21;;;;;;;0.63;0.50;;;11.70;99.90;;;11.53;59.41;100651.44;4881522;28;103413;-40
2024/01/22 03:47:47;;;;;;;1.33;0.67;;;11.70;99.90;;;11.51;58.66;100637.44;4887542;28;118275;-38
2024/01/22 03:50:16;;;;;;;0.87;0.60;;;11.70;99.90;;;11.57;56.47;100636.31;4898005;28;111895;-36
2024/01/22 03:52:42;;;;;;;1.67;0.73;;;11.80;99.90;;;11.56;59.77;100630.19;4891080;28;102017;-38
2024/01/22 03:55:09;;;;;;;2.80;1.07;;;11.80;99.90;;;11.53;59.87;100611.81;4898222;28;100732;-36
2024/01/22 03:57:36;;;;;;;1.00;0.53;;;11.70;99.90;;;11.65;52.93;100612.25;4909540;28;102107;-37
2024/01/22 04:00:05;;;;;;;2.50;0.80;;;11.80;99.90;;;11.63;59.01;100631.69;4884157;28;97544;-39
2024/01/22 04:02:34;;;;;;;1.17;0.80;;;11.80;99.90;;;11.58;60.11;100623.09;4906863;28;97611;-37
2024/01/22 04:05:00;;;;;;;0.50;0.30;;;11.70;99.90;;;11.71;50.79;100601.44;4901208;28;97377;-35
2024/01/22 04:07:26;;;;;;;1.43;0.63;;;11.70;99.90;;;11.72;55.36;100592.59;4894592;28;97936;-39
2024/01/22 04:09:51;;;;;;;2.10;0.60;;;11.80;99.90;;;11.67;57.82;100594.56;4891409;28;114750;-37
2024/01/22 04:12:17;;;;;;;2.87;0.70;;;11.80;99.90;;;11.73;51.23;100594.31;4892834;28;117497;-37
2024/01/22 04:14:43;;;;;;;0.80;0.60;;;11.80;99.90;;;11.76;52.93;100592.41;4900225;28;112905;-38
2024/01/22 04:17:08;;;;;;;2.07;0.80;;;11.90;99.90;;;11.79;56.54;100573.81;4904843;28;98161;-37
2024/01/22 04:19:34;;;;;;;1.53;0.90;;;11.90;99.90;;;11.75;58.92;100566.03;4899932;28;112801;-38
2024/01/22 04:22:03;;;;;;;2.63;0.40;;;11.90;99.90;;;11.80;57.45;100574.66;4905595;28;97539;-36
2024/01/22 04:24:29;;;;;;;1.03;0.60;;;11.90;99.90;;;11.69;57.75;100561.00;4897422;28;97477;-37
2024/01/22 04:26:57;;;;;;;2.43;0.70;;;11.90;99.90;;;11.75;56.81;100571.31;4894533;28;102562;-37
2024/01/22 04:29:23;;;;;;;2.27;0.60;;;11.80;99.90;;;11.71;61.27;100554.72;4892833;28;113748;-37
2024/01/22 04:31:49;;;;;;;1.00;0.40;;;11.80;99.90;;;11.66;62.00;100561.13;4922314;28;108072;-38
2024/01/22 04:34:15;;;;;;;1.80;0.80;;;11.80;99.90;;;11.58;62.99;100557.03;4890797;28;112480;-37
2024/01/22 04:36:41;;;;;;;2.27;0.60;;;11.70;99.90;;;11.57;59.82;100531.53;4892636;28;99588;-37
2024/01/22 04:39:07;;;;;;;1.00;0.40;;;11.70;99.90;;;11.46;64.66;100544.34;4892697;28;98853;-37
2024/01/22 04:41:32;;;;;;;1.33;0.50;;;11.60;99.90;;;11.47;63.78;100534.63;4897187;28;97352;-37
2024/01/22 04:43:58;;;;;;;1.30;0.60;;;11.60;99.90;;;11.58;55.03;100527.97;4878011;28;102354;-37
2024/01/22 04:46:24;;;;;;;1.83;0.50;;;11.60;99.90;;;11.43;65.04;100523.34;4885726;28;100822;-41
2024/01/22 04:48:50;;;;;;;2.83;0.57;;;11.60;99.90;;;11.47;63.74;100531.97;4895484;28;116512;-37
2024/01/22 04:51:15;;;;;;;5.10;0.80;;;11.60;99.90;;;11.46;64.47;100515.28;4896864;28;97183;-38
2024/01/22 04:53:41;;;;;;;1.03;0.60;;;11.60;99.90;;;11.48;63.51;100507.28;4898330;28;97373;-37
2024/01/22 04:56:07;;;;;;;0.43;0.40;;;11.60;99.90;;;11.44;62.65;100514.50;4903028;28;124811;-36
2024/01/22 04:58:32;;;;;;;1.03;0.50;;;11.60;99.90;;;11.54;60.23;100510.50;4895526;28;98918;-37
2024/01/22 05:00:58;;;;;;;1.13;0.40;;;11.60;99.90;;;11.65;54.05;100490.72;4897598;28;104776;-37
2024/01/22 05:03:24;;;;;;;4.23;0.40;;;11.70;99.90;;;11.65;63.10;100490.72;4893506;28;116405;-38
2024/01/22 05:05:50;;;;;;;1.40;0.30;;;11.70;99.90;;;11.61;63.61;100500.56;4892427;28;97848;-36
2024/01/22 05:08:15;;;;;;;1.57;0.60;;;11.70;99.90;;;11.63;61.88;100501.34;4907766;28;101588;-37
2024/01/22 05:10:41;;;;;;;2.17;0.47;;;11.70;99.90;;;11.70;54.41;100509.88;4910232;28;97283;-39
2024/01/22 05:13:07;;;;;;;0.50;0.50;;;11.70;99.90;;;11.67;59.62;100502.06;4895038;28;113688;-36
2024/01/22 05:15:33;;;;;;;1.43;0.50;;;11.70;99.90;;;11.71;57.72;100501.88;4891353;28;121170;-36
2024/01/22 05:17:58;;;;;;;0.70;0.53;;;11.70;99.90;;;11.67;62.83;100491.50;4899828;28;119974;-42
2024/01/22 05:20:24;;;;;;;1.93;0.60;;;11.70;99.90;;;11.70;58.10;100486.09;4904735;28;101668;-36
2024/01/22 05:22:50;;;;;;;0.77;0.40;;;11.70;99.90;;;11.78;53.76;100486.63;4887250;28;116948;-35
2024/01/22 05:25:15;;;;;;;1.43;0.40;;;11.80;99.90;;;11.80;60.29;100492.75;4914118;28;125001;-36
2024/01/22 05:27:46;;;;;;;0.33;0.33;;;11.80;99.90;;;11.74;61.65;100490.34;4906552;28;98101;-35
2024/01/22 05:30:13;;;;;;;0.20;0.20;;;11.70;99.90;;;11.76;61.94;100483.19;4890325;28;97508;-37
2024/01/22 05:32:38;;;;;;;0.53;0.27;;;11.70;99.90;;;11.74;62.03;100479.78;4904484;28;101911;-35
2024/01/22 05:35:05;;;;;;;2.50;0.50;;;11.70;99.90;;;11.66;63.52;100487.16;4895540;28;106839;-37
2024/01/22 05:37:33;;;;;;;1.43;0.47;;;11.70;99.90;;;11.67;58.16;100488.88;4892242;28;98311;-37
2024/01/22 05:39:59;;;;;;;1.40;0.40;;;11.60;99.90;;;11.69;54.71;100497.59;4889208;28;97039;-36
2024/01/22 05:42:25;;;;;;;0.80;0.30;;;11.60;99.90;;;11.62;62.18;100492.56;4911727;28;97446;-38
2024/01/22 05:44:50;;;;;;;2.47;0.43;;;11.70;99.90;;;11.65;60.19;100496.00;4893924;28;98034;-40
2024/01/22 05:47:16;;;;;;;2.00;0.30;;;11.70;99.90;;;11.67;59.34;100488.88;4896871;28;112471;-36
2024/01/22 05:49:42;;;;;;;1.20;0.47;;;11.60;99.90;;;11.67;62.64;100489.72;4895584;28;97383;-37
2024/01/22 05:52:08;;;;;;;0.60;0.30;;;11.60;99.90;;;11.59;64.13;100492.72;4918574;28;102265;-43
2024/01/22 05:54:33;;;;;;;0.97;0.30;;;11.60;99.90;;;11.54;63.62;100494.66;4897768;28;100074;-36
2024/01/22 05:56:59;;;;;;;0.70;0.50;;;11.60;99.90;;;11.57;60.86;100485.75;4869215;28;105228;-44
2024/01/22 05:59:27;;;;;;;3.70;0.40;;;11.60;99.90;;;11.72;58.31;100481.63;4898910;28;103947;-37
2024/01/22 06:01:55;;;;;;;0.83;0.33;;;11.70;99.90;;;11.76;53.35;100483.19;4892221;28;108714;-38
2024/01/22 06:04:22;;;;;;;1.60;0.40;;;11.70;99.90;;;11.69;63.39;100481.72;4892468;28;98989;-38
2024/01/22 06:06:48;;;;;;;0.60;0.40;;;11.70;99.90;;;11.76;60.37;100475.28;4896742;28;101623;-37
2024/01/22 06:09:14;;;;;;;0.43;0.33;;;11.70;99.90;;;11.74;62.16;100482.41;4904918;28;99390;-37
2024/01/22 06:11:40;;;;;;;1.23;0.40;;;11.70;99.90;;;11.84;54.08;100475.81;4896420;28;98362;-37
2024/01/22 06:14:07;;;;;;;0.80;0.40;;;11.80;99.90;;;11.81;53.46;100482.09;4897317;28;102072;-38
2024/01/22 06:16:32;;;;;;;1.20;0.60;;;11.80;99.90;;;11.76;64.80;100491.13;4894960;28;98831;-37
2024/01/22 06:18:58;;;;;;;0.40;0.33;;;11.80;99.90;;;11.63;64.19;100491.66;4879140;28;97246;-37
2024/01/22 06:21:25;;;;;;;2.23;0.37;;;11.70;99.90;;;11.73;59.82;100483.34;4898612;28;97321;-37
2024/01/22 06:23:50;;;;;;;0.50;0.23;;;11.80;99.90;;;11.74;65.67;100485.06;4899676;28;102321;-36
2024/01/22 06:26:17;;;;;;;0.40;0.23;;;11.90;99.90;;;11.88;60.64;100461.56;4895760;28;99336;-38
2024/01/22 06:28:43;;;;;;;1.13;0.40;;;12.00;99.90;;;11.94;61.26;100471.84;4899759;28;97223;-38
2024/01/22 06:31:09;;;;;;;0.47;0.40;;;12.10;99.90;;;12.13;53.88;100451.59;4894420;28;107058;-37
2024/01/22 06:33:35;;;;;;;0.40;0.20;;;12.20;99.90;;;12.14;57.87;100458.59;4897152;28;99862;-37
2024/01/22 06:36:01;;;;;;;1.60;0.57;;;12.20;99.90;;;12.22;52.79;100460.91;4897265;28;97844;-38
2024/01/22 06:38:26;;;;;;;1.43;0.50;;;12.20;99.90;;;12.12;62.36;100449.88;4911579;28;111076;-38
2024/01/22 06:40:53;;;;;;;0.20;0.20;;;12.20;99.90;;;12.12;56.79;100460.44;4897184;28;98612;-38
2024/01/22 06:43:19;;;;;;;0.60;0.30;;;12.10;99.90;;;12.09;60.11;100457.94;4899080;28;98016;-37
2024/01/22 06:45:45;;;;;;;2.33;0.33;;;12.10;99.90;;;12.17;54.13;100452.34;4897107;28;118645;-37
2024/01/22 06:48:11;;;;;;;0.17;0.10;;;12.10;99.90;;;12.08;60.64;100469.47;4890579;28;97442;-37
2024/01/22 06:50:37;;;;;;;2.33;0.40;;;12.10;99.90;;;11.98;62.86;100476.06;4884825;28;97554;-37
2024/01/22 06:53:04;;;;;;;0.33;0.30;;;12.10;99.90;;;11.88;63.92;100465.06;4901987;28;99754;-37
2024/01/22 06:55:29;;;;;;;1.13;0.40;;;12.00;99.90;;;11.89;63.75;100452.72;4896098;28;97584;-37
2024/01/22 06:57:55;;;;;;;3.10;0.40;;;11.90;99.90;;;11.84;65.43;100465.25;4893577;28;107778;-40
2024/01/22 07:00:24;;;;;;;0.30;0.20;;;11.90;99.90;;;11.77;66.62;100448.78;4907942;28;97296;-37
2024/01/22 07:02:49;;;;;;;0.50;0.30;;;11.90;99.90;;;11.81;64.31;100454.81;4895404;28;100248;-35
2024/01/22 07:05:16;;;;;;;0.30;0.10;;;12.00;99.90;;;11.82;65.94;100461.81;4893897;28;98999;-38
2024/01/22 07:07:42;;;;;;;0.10;0.00;;;12.10;99.90;;;11.94;62.08;100466.56;4899682;28;97532;-41
2024/01/22 07:10:08;;;;;;;0.30;0.10;;;12.10;99.90;;;11.99;59.43;100458.41;4903546;28;103473;-37
2024/01/22 07:12:35;;;;;;;0.20;0.10;;;12.20;99.90;;;12.06;60.55;100455.44;4903845;28;100656;-37
2024/01/22 07:15:01;;;;;;;0.20;0.10;;;12.30;99.90;;;12.13;64.28;100466.59;4894259;28;97347;-34
2024/01/22 07:17:28;;;;;;;0.10;0.00;;;12.40;99.90;;;12.14;64.56;100457.72;4914392;28;97257;-37
2024/01/22 07:19:54;;;;;;;0.40;0.10;;;12.40;99.90;;;12.17;62.79;100452.34;4889077;28;97245;-39
2024/01/22 07:22:20;;;;;;;1.37;0.13;;;12.40;99.90;;;12.23;63.77;100453.81;4897562;28;98664;-38
2024/01/22 07:24:46;;;;;;;0.10;0.00;;;12.50;99.90;;;12.31;57.96;100467.56;4898200;28;123492;-38
2024/01/22 07:27:15;;;;;;;0.97;0.30;;;12.50;99.90;;;12.41;61.77;100460.91;4902434;28;97501;-37
2024/01/22 07:29:42;;;;;;;1.03;0.50;;;12.60;99.90;;;12.44;62.82;100469.59;4899980;28;97752;-37
2024/01/22 07:32:10;;;;;;;1.60;0.20;;;12.70;99.90;;;12.43;64.34;100480.22;4896230;28;98185;-37
2024/01/22 07:34:39;;;;;;;0.10;0.00;;;12.70;99.90;;;12.42;63.20;100481.13;4869975;28;100071;-35
2024/01/22 07:37:07;;;;;;;0.87;0.10;;;12.70;99.90;;;12.48;63.32;100480.88;4858391;28;97751;-38
2024/01/22 07:39:33;;;;;;;0.97;0.33;;;12.70;99.90;;;12.53;62.14;100470.94;4838114;28;99656;-37
2024/01/22 07:41:59;;;;;;;2.13;0.17;;;12.80;99.90;;;12.47;63.81;100484.44;4854034;28;100085;-37
2024/01/22 07:44:24;;;;;;;1.60;0.10;;;12.70;99.90;;;12.55;59.69;100484.09;4842783;28;98035;-38
2024/01/22 07:46:50;;;;;;;0.20;0.20;;;12.80;99.90;;;12.58;55.81;100490.09;4856841;28;117134;-36
2024/01/22 07:49:16;;;;;;;0.20;0.10;;;12.80;99.90;;;12.59;63.37;100496.25;4847350;28;100694;-37
2024/01/22 07:51:48;;;;;;;0.00;0.00;;;12.80;99.90;;;12.65;56.54;100493.31;4873706;28;117362;-38
2024/01/22 07:54:14;;;;;;;0.10;0.10;;;12.90;99.90;;;12.70;56.77;100510.69;4852009;28;130934;-38
2024/01/22 07:56:40;;;;;;;0.30;0.27;;;12.90;99.90;;;12.71;61.42;100512.41;4859657;28;97650;-39
2024/01/22 07:59:06;;;;;;;0.10;0.10;;;12.90;99.90;;;12.75;62.42;100506.06;4824797;28;99011;-37
2024/01/22 08:01:31;;;;;;;0.40;0.30;;;13.00;99.90;;;12.71;55.76;100496.53;4865998;28;98575;-37
2024/01/22 08:03:57;;;;;;;0.73;0.20;;;12.90;99.90;;;12.72;60.15;100505.31;4861576;28;106173;-39
2024/01/22 08:06:23;;;;;;;2.23;0.20;;;12.90;99.90;;;12.66;61.55;100509.13;4854412;28;106825;-37
2024/01/22 08:08:49;;;;;;;0.10;0.10;;;12.90;99.90;;;12.75;60.50;100519.28;4880572;28;105863;-38
2024/01/22 08:11:14;;;;;;;0.50;0.20;;;12.90;99.90;;;12.76;62.11;100504.25;4863752;28;124448;-39
2024/01/22 08:13:43;;;;;;;1.90;0.30;;;13.00;99.90;;;12.76;61.71;100513.06;4869796;28;98833;-35
2024/01/22 08:16:09;;;;;;;0.40;0.20;;;13.00;99.90;;;12.80;62.71;100509.34;4861468;28;102085;-40
2024/01/22 08:18:37;;;;;;;0.17;0.17;;;13.00;99.90;;;12.78;63.58;100499.75;4860989;28;104081;-39
2024/01/22 08:21:03;;;;;;;0.30;0.17;;;13.00;99.90;;;12.77;61.23;100505.97;4854418;28;98461;-34
2024/01/22 08:23:29;;;;;;;0.00;0.00;;;12.90;99.90;;;12.81;58.02;100492.53;4862417;28;100621;-43
2024/01/22 08:25:55;;;;;;;1.27;0.23;;;13.00;99.90;;;12.77;62.60;100505.97;4862776;28;105169;-39
2024/01/22 08:28:20;;;;;;;0.20;0.13;;;13.00;99.90;;;12.84;61.30;100509.19;4864881;28;107665;-38
2024/01/22 08:30:46;;;;;;;0.40;0.20;;;13.00;99.90;;;12.75;63.57;100503.41;4865579;28;101880;-36
2024/01/22 08:33:12;;;;;;;0.10;0.10;;;13.00;99.90;;;12.82;55.75;100498.66;4847111;28;122612;-41
2024/01/22 08:35:41;;;;;;;0.47;0.10;;;13.00;99.90;;;12.80;59.53;100500.53;4853917;28;100258;-37
2024/01/22 08:38:07;;;;;;;0.13;0.10;;;13.00;99.90;;;12.85;53.13;100495.00;4857468;28;100713;-38
2024/01/22 08:40:33;;;;;;;3.27;2.30;;;13.00;99.90;;;12.79;58.32;100499.69;4856124;28;99631;-36
2024/01/22 08:42:59;;;;;;;0.20;0.10;;;13.00;99.90;;;12.82;59.38;100493.38;4862496;28;101518;-37
2024/01/22 08:45:25;;;;;;;0.20;0.20;;;13.10;99.90;;;12.87;62.52;100499.28;4862779;28;116765;-37
2024/01/22 08:47:51;;;;;;;0.50;0.30;;;13.10;99.90;;;12.90;62.42;100499.19;4864694;28;100646;-38
2024/01/22 08:50:19;;;;;;;1.60;0.20;;;13.10;99.90;;;12.89;61.94;100493.97;4857640;28;122217;-37
2024/01/22 08:52:49;;;;;;;0.43;0.10;;;13.10;99.90;;;12.88;60.36;100487.81;4859013;28;99041;-38
2024/01/22 08:55:18;;;;;;;0.13;0.10;;;13.10;99.90;;;12.82;60.43;100499.53;4870301;28;102248;-36
2024/01/22 08:57:45;;;;;;;0.27;0.20;;;13.10;99.90;;;12.81;61.02;100497.81;4860800;28;97667;-37
2024/01/22 09:00:11;;;;;;;0.13;0.07;;;13.10;99.90;;;12.79;63.55;100488.22;4870643;28;98585;-37
2024/01/22 09:02:44;;;;;;;0.60;0.40;;;13.00;99.90;;;12.75;64.26;100487.53;4856137;28;99608;-38
2024/01/22 09:05:10;;;;;;;0.50;0.33;;;13.00;99.90;;;12.86;60.28;100472.91;4850445;28;101169;-37
2024/01/22 09:07:37;;;;;;;0.17;0.13;;;13.00;99.90;;;12.79;64.13;100489.09;4867705;28;116087;-36
2024/01/22 09:10:07;;;;;;;2.53;0.20;;;13.00;99.90;;;12.79;63.93;100475.00;4849412;28;102226;-37
2024/01/22 09:12:40;;;;;;;0.23;0.10;;;13.00;99.90;;;12.81;62.57;100474.00;4859230;28;98762;-37
2024/01/22 09:15:07;;;;;;;0.20;0.20;;;13.00;99.90;;;12.77;62.53;100485.66;4860101;28;97253;-36
2024/01/22 09:17:33;;;;;;;0.10;0.10;;;13.00;99.90;;;12.82;63.54;100465.13;4859191;28;110883;-37
2024/01/22 09:20:00;;;;;;;0.13;0.10;;;13.00;99.90;;;12.85;62.68;100468.53;4864428;28;99908;-38
2024/01/22 09:22:29;;;;;;;0.57;0.27;;;13.10;99.90;;;12.91;62.88;100476.22;4858165;28;99459;-44
2024/01/22 09:24:57;;;;;;;0.40;0.20;;;13.10;99.90;;;12.98;58.49;100459.09;4844515;28;115639;-35
2024/01/22 09:27:25;;;;;;;0.13;0.10;;;13.20;99.90;;;13.01;54.55;100451.84;4850074;28;111574;-38
2024/01/22 09:29:50;;;;;;;0.47;0.23;;;13.30;99.90;;;13.05;59.81;100481.69;4833877;28;101716;-37
2024/01/22 09:32:18;;;;;;;5.23;1.23;;;13.30;99.90;;;13.11;57.25;100468.16;4851730;28;100309;-38
2024/01/22 09:34:44;;;;;;;0.63;0.20;;;13.30;99.90;;;13.08;61.75;100484.19;4851885;28;101704;-38
2024/01/22 09:37:13;;;;;;;4.50;0.87;;;13.40;99.90;;;13.07;56.08;100482.47;4820684;28;100168;-37
2024/01/22 09:39:40;;;;;;;7.33;0.53;;;13.30;99.90;;;13.10;52.46;100466.44;4839763;28;103932;-38
2024/01/22 09:42:06;;;;;;;7.33;0.50;;;13.30;99.90;;;13.17;54.26;100467.88;4849674;28;99576;-39
2024/01/22 09:44:34;;;;;;;0.20;0.20;;;13.40;99.90;;;13.14;58.30;100468.00;4858314;28;97332;-37
2024/01/22 09:47:02;;;;;;;2.07;0.50;;;13.40;99.90;;;13.19;58.88;100455.44;4838889;28;99229;-39
2024/01/22 09:49:31;;;;;;;0.63;0.43;;;13.50;99.90;;;13.26;55.23;100470.06;4815546;28;99809;-37
2024/01/22 09:52:00;;;;;;;1.40;0.40;;;13.50;99.90;;;13.35;59.91;100477.56;4838687;28;99349;-37
2024/01/22 09:54:30;;;;;;;0.57;0.27;;;13.60;99.90;;;13.38;58.12;100480.06;4848069;28;107044;-36
2024/01/22 09:56:57;;;;;;;2.20;0.47;;;13.70;99.90;;;13.42;60.50;100471.94;4844075;28;98765;-37
2024/01/22 09:59:26;;;;;;;2.83;0.50;;;13.70;99.90;;;13.47;60.63;100475.25;4851032;28;99944;-38
2024/01/22 10:01:53;;;;;;;0.70;0.33;;;13.80;99.90;;;13.52;57.64;100468.78;4858843;28;102019;-36
2024/01/22 10:04:20;;;;;;;2.33;0.60;;;13.80;99.90;;;13.55;57.04;100465.09;4840141;28;98723;-39
2024/01/22 10:06:48;;;;;;;0.97;0.53;;;13.90;99.90;;;13.58;60.18;100465.78;4868038;28;100458;-37